Time;durP1;ratioP1;P1;durP2;ratioP2;P2;SDS_P1;SDS_P2;PMS_P1;PMS_P2;Temp;Humidity;BMP_temperature;BMP_pressure;BME280_temperature;BME280_humidity;BME280_pressure;Samples;Min_cycle;Max_cycle;Signal;HPM_P1;HPM_P2
2023/04/21 00:00:14;;;;;;;;;;;;;;;15.13;45.58;100944.22;4964741;27;110639;-67
2023/04/21 00:02:40;;;;;;;;;;;;;;;15.11;45.95;100933.66;4964473;27;113362;-67
2023/04/21 00:05:09;;;;;;;;;;;;;;;15.11;45.66;100927.41;4966716;27;99870;-67
2023/04/21 00:07:36;;;;;;;;;;;;;;;15.11;45.79;100930.13;4965033;27;98614;-66
2023/04/21 00:10:06;;;;;;;;;;;;;;;15.10;46.08;100920.38;4960961;27;98485;-66
2023/04/21 00:12:32;;;;;;;;;;;;;;;15.09;45.93;100924.16;4960222;27;99588;-67
2023/04/21 00:14:58;;;;;;;;;;;;;;;15.08;45.91;100922.56;4966048;27;99095;-66
2023/04/21 00:17:24;;;;;;;;;;;;;;;15.07;46.10;100920.94;4948851;27;111180;-66
2023/04/21 00:19:50;;;;;;;;;;;;;;;15.04;46.08;100921.50;4964756;27;127023;-67
2023/04/21 00:22:17;;;;;;;;;;;;;;;15.05;45.93;100923.97;4949592;27;100185;-67
2023/04/21 00:24:43;;;;;;;;;;;;;;;15.04;45.80;100921.50;4950006;27;98423;-67
2023/04/21 00:27:10;;;;;;;;;;;;;;;15.03;45.87;100928.03;4965668;27;118866;-67
2023/04/21 00:29:36;;;;;;;;;;;;;;;15.02;46.10;100927.25;4945008;27;98232;-66
2023/04/21 00:32:02;;;;;;;;;;;;;;;15.02;45.63;100915.56;4949187;27;109302;-66
2023/04/21 00:34:29;;;;;;;;;;;;;;;15.00;45.99;100918.56;4978988;27;98166;-67
2023/04/21 00:36:55;;;;;;;;;;;;;;;14.98;45.78;100921.56;4965107;27;98814;-67
2023/04/21 00:39:21;;;;;;;;;;;;;;;14.98;46.00;100908.00;4958911;27;98953;-67
2023/04/21 00:41:47;;;;;;;;;;;;;;;14.98;45.84;100918.84;4973628;27;121495;-67
2023/04/21 00:44:13;;;;;;;;;;;;;;;14.97;45.69;100914.53;4946894;27;98132;-67
2023/04/21 00:46:39;;;;;;;;;;;;;;;14.96;46.20;100910.16;4959420;27;97885;-67
2023/04/21 00:49:06;;;;;;;;;;;;;;;14.95;45.87;100905.84;4959453;27;98138;-67
2023/04/21 00:51:33;;;;;;;;;;;;;;;14.95;45.68;100908.56;4964139;27;97954;-67
2023/04/21 00:54:00;;;;;;;;;;;;;;;14.95;45.84;100899.59;4965035;27;98160;-67
2023/04/21 00:56:27;;;;;;;;;;;;;;;14.93;45.67;100905.34;4962203;27;102572;-67
2023/04/21 00:58:53;;;;;;;;;;;;;;;14.93;45.86;100901.78;4950755;27;120469;-67
2023/04/21 01:01:19;;;;;;;;;;;;;;;14.92;46.00;100905.59;4973874;27;98832;-67
2023/04/21 01:03:46;;;;;;;;;;;;;;;14.91;45.67;100909.41;4949374;27;127414;-67
2023/04/21 01:06:12;;;;;;;;;;;;;;;14.90;45.96;100908.63;4947040;27;97989;-67
2023/04/21 01:08:38;;;;;;;;;;;;;;;14.90;45.66;100897.75;4992648;27;100530;-67
2023/04/21 01:11:11;;;;;;;;;;;;;;;14.88;45.89;100897.22;4946486;27;99678;-67
2023/04/21 01:13:37;;;;;;;;;;;;;;;14.89;45.88;100898.03;4978723;27;98562;-67
2023/04/21 01:16:04;;;;;;;;;;;;;;;14.85;45.82;100899.69;4978423;27;97831;-67
2023/04/21 01:18:29;;;;;;;;;;;;;;;14.84;45.72;100898.06;4976690;27;98450;-67
2023/04/21 01:20:57;;;;;;;;;;;;;;;14.81;45.94;100895.94;4957491;27;126370;-66
2023/04/21 01:23:23;;;;;;;;;;;;;;;14.79;46.11;100898.13;4964043;27;98175;-66
2023/04/21 01:25:52;;;;;;;;;;;;;;;14.76;45.90;100894.06;4947172;27;105039;-66
2023/04/21 01:28:22;;;;;;;;;;;;;;;14.74;45.77;100888.13;4966430;27;114087;-67
2023/04/21 01:30:48;;;;;;;;;;;;;;;14.70;46.15;100882.47;4958432;27;98325;-67
2023/04/21 01:33:14;;;;;;;;;;;;;;;14.70;45.80;100889.81;4960310;27;97903;-67
2023/04/21 01:35:40;;;;;;;;;;;;;;;14.67;45.87;100888.47;4973894;27;98870;-67
2023/04/21 01:38:06;;;;;;;;;;;;;;;14.66;45.74;100886.84;4963417;27;98370;-67
2023/04/21 01:40:32;;;;;;;;;;;;;;;14.65;46.01;100881.69;4940107;27;127992;-66
2023/04/21 01:42:58;;;;;;;;;;;;;;;14.64;45.71;100877.34;4945639;27;127958;-67
2023/04/21 01:45:24;;;;;;;;;;;;;;;14.62;46.12;100880.38;4941433;27;98354;-67
2023/04/21 01:47:50;;;;;;;;;;;;;;;14.61;45.99;100876.00;4973145;27;98411;-67
2023/04/21 01:50:17;;;;;;;;;;;;;;;14.60;45.87;100874.41;4941360;27;107760;-67
2023/04/21 01:52:43;;;;;;;;;;;;;;;14.59;45.89;100874.69;4973843;27;97991;-67
2023/04/21 01:55:09;;;;;;;;;;;;;;;14.58;46.08;100873.06;4963838;27;98285;-67
2023/04/21 01:57:35;;;;;;;;;;;;;;;14.57;45.92;100874.16;4940292;27;98024;-67
2023/04/21 02:00:02;;;;;;;;;;;;;;;14.55;45.91;100869.03;4947000;27;112798;-67
2023/04/21 02:02:29;;;;;;;;;;;;;;;14.56;45.76;100872.56;4959028;27;98079;-67
2023/04/21 02:04:55;;;;;;;;;;;;;;;14.53;45.71;100879.34;4974428;27;103971;-67
2023/04/21 02:07:21;;;;;;;;;;;;;;;14.53;46.08;100876.63;4975197;27;99509;-66
2023/04/21 02:09:47;;;;;;;;;;;;;;;14.53;45.77;100873.91;4971789;27;127902;-67
2023/04/21 02:12:13;;;;;;;;;;;;;;;14.51;45.67;100870.69;4939066;27;130126;-67
2023/04/21 02:14:39;;;;;;;;;;;;;;;14.51;45.71;100864.47;4959874;27;117521;-67
2023/04/21 02:17:05;;;;;;;;;;;;;;;14.50;45.78;100863.63;4944735;27;99696;-66
2023/04/21 02:19:31;;;;;;;;;;;;;;;14.48;45.62;100865.78;4956337;27;98407;-66
2023/04/21 02:21:57;;;;;;;;;;;;;;;14.47;45.75;100865.00;4962974;27;114400;-66
2023/04/21 02:24:23;;;;;;;;;;;;;;;14.47;45.81;100865.00;4964166;27;116749;-67
2023/04/21 02:26:49;;;;;;;;;;;;;;;14.46;45.75;100874.22;4956069;27;128165;-66
2023/04/21 02:29:15;;;;;;;;;;;;;;;14.45;45.81;100869.06;4941431;27;98054;-66
2023/04/21 02:31:41;;;;;;;;;;;;;;;14.45;45.73;100877.22;4942027;27;129951;-66
2023/04/21 02:34:07;;;;;;;;;;;;;;;14.44;45.91;100881.00;4943731;27;119853;-67
2023/04/21 02:36:33;;;;;;;;;;;;;;;14.43;46.10;100879.41;4956517;27;127865;-67
2023/04/21 02:38:59;;;;;;;;;;;;;;;14.42;46.16;100877.75;4942527;27;98517;-67
2023/04/21 02:41:25;;;;;;;;;;;;;;;14.42;45.79;100881.31;4964597;27;98086;-66
2023/04/21 02:43:51;;;;;;;;;;;;;;;14.41;45.72;100874.25;4961171;27;98163;-66
2023/04/21 02:46:17;;;;;;;;;;;;;;;14.40;45.63;100883.47;4946534;27;126955;-67
2023/04/21 02:48:43;;;;;;;;;;;;;;;14.39;46.06;100879.16;4963525;27;129334;-66
2023/04/21 02:51:12;;;;;;;;;;;;;;;14.39;45.91;100871.03;4974311;27;128496;-66
2023/04/21 02:53:39;;;;;;;;;;;;;;;14.39;45.98;100881.06;4959939;27;98410;-67
2023/04/21 02:56:07;;;;;;;;;;;;;;;14.38;45.95;100877.53;4959456;27;98513;-67
2023/04/21 02:58:36;;;;;;;;;;;;;;;14.38;45.71;100871.28;4971690;27;101116;-67
2023/04/21 03:01:02;;;;;;;;;;;;;;;14.36;46.07;100882.44;4961645;27;109068;-67
2023/04/21 03:03:29;;;;;;;;;;;;;;;14.36;46.09;100874.28;4989890;27;98331;-67
2023/04/21 03:06:02;;;;;;;;;;;;;;;14.33;45.80;100872.13;4957461;27;98087;-67
2023/04/21 03:08:29;;;;;;;;;;;;;;;14.33;45.83;100877.56;4960830;27;101082;-67
2023/04/21 03:10:55;;;;;;;;;;;;;;;14.33;45.87;100880.28;4943488;27;98192;-67
2023/04/21 03:13:22;;;;;;;;;;;;;;;14.32;46.17;100878.66;4938774;27;118914;-67
2023/04/21 03:15:48;;;;;;;;;;;;;;;14.30;45.96;100872.69;4959534;27;98197;-67
2023/04/21 03:18:13;;;;;;;;;;;;;;;14.30;45.75;100871.88;4961172;27;129142;-67
2023/04/21 03:20:39;;;;;;;;;;;;;;;14.30;45.71;100863.75;4970221;27;127503;-67
2023/04/21 03:23:05;;;;;;;;;;;;;;;14.29;45.86;100870.28;4960998;27;120062;-67
2023/04/21 03:25:31;;;;;;;;;;;;;;;14.27;45.65;100867.06;4958626;27;110186;-67
2023/04/21 03:27:58;;;;;;;;;;;;;;;14.27;45.87;100870.56;4946467;27;98442;-67
2023/04/21 03:30:25;;;;;;;;;;;;;;;14.26;45.82;100866.22;4946880;27;100175;-67
2023/04/21 03:32:51;;;;;;;;;;;;;;;14.25;45.78;100864.59;4959079;27;98816;-67
2023/04/21 03:35:17;;;;;;;;;;;;;;;14.24;45.88;100866.50;4973033;27;98395;-67
2023/04/21 03:37:43;;;;;;;;;;;;;;;14.23;45.98;100878.47;4958014;27;98127;-67
2023/04/21 03:40:09;;;;;;;;;;;;;;;14.23;45.86;100877.66;4961903;27;98390;-67
2023/04/21 03:42:35;;;;;;;;;;;;;;;14.22;45.97;100873.31;4937506;27;104567;-67
2023/04/21 03:45:05;;;;;;;;;;;;;;;14.21;46.03;100864.34;4960974;27;98176;-67
2023/04/21 03:47:31;;;;;;;;;;;;;;;14.19;45.77;100873.88;4944525;27;108055;-67
2023/04/21 03:49:57;;;;;;;;;;;;;;;14.18;46.09;100864.91;4974581;27;127306;-67
2023/04/21 03:52:23;;;;;;;;;;;;;;;14.18;45.90;100873.06;4958590;27;97847;-67
2023/04/21 03:54:49;;;;;;;;;;;;;;;14.20;45.98;100875.50;4946397;27;111446;-67
2023/04/21 03:57:15;;;;;;;;;;;;;;;14.18;45.91;100867.63;4958530;27;116804;-67
2023/04/21 03:59:41;;;;;;;;;;;;;;;14.19;46.15;100876.59;4958042;27;98126;-67
2023/04/21 04:02:07;;;;;;;;;;;;;;;14.18;45.78;100880.38;4956055;27;98137;-67
2023/04/21 04:04:33;;;;;;;;;;;;;;;14.18;45.87;100881.19;4936872;27;98206;-67
2023/04/21 04:06:59;;;;;;;;;;;;;;;14.18;45.83;100873.06;4944731;27;100605;-67
2023/04/21 04:09:25;;;;;;;;;;;;;;;14.19;45.71;100884.72;4971537;27;98098;-67
2023/04/21 04:11:51;;;;;;;;;;;;;;;14.19;45.77;100884.72;4955828;27;110081;-67
2023/04/21 04:14:17;;;;;;;;;;;;;;;14.19;45.85;100882.03;4977828;27;127932;-67
2023/04/21 04:16:43;;;;;;;;;;;;;;;14.18;45.67;100875.75;4945997;27;127712;-67
2023/04/21 04:19:09;;;;;;;;;;;;;;;14.19;45.70;100882.81;4938297;27;122293;-67
2023/04/21 04:21:35;;;;;;;;;;;;;;;14.21;45.67;100886.03;4956250;27;98168;-67
2023/04/21 04:24:02;;;;;;;;;;;;;;;14.21;45.74;100886.03;4955931;27;98292;-67
2023/04/21 04:26:28;;;;;;;;;;;;;;;14.22;45.96;100890.38;4962607;27;98839;-67
2023/04/21 04:28:55;;;;;;;;;;;;;;;14.24;45.59;100890.09;4942356;27;98341;-67
2023/04/21 04:31:24;;;;;;;;;;;;;;;14.25;45.58;100891.72;4945967;27;98115;-67
2023/04/21 04:33:50;;;;;;;;;;;;;;;14.27;45.61;100886.84;4977497;27;98286;-67
2023/04/21 04:36:16;;;;;;;;;;;;;;;14.29;45.73;100886.53;4964046;27;119522;-67
2023/04/21 04:38:42;;;;;;;;;;;;;;;14.30;45.92;100882.75;4962898;27;117537;-67
2023/04/21 04:41:08;;;;;;;;;;;;;;;14.32;45.89;100884.09;4944452;27;98159;-67
2023/04/21 04:43:37;;;;;;;;;;;;;;;14.34;45.99;100884.59;4965725;27;128423;-67
2023/04/21 04:46:04;;;;;;;;;;;;;;;14.35;45.88;100882.72;4983347;27;98584;-67
2023/04/21 04:48:30;;;;;;;;;;;;;;;14.40;45.65;100893.53;4965445;27;98081;-67
2023/04/21 04:50:56;;;;;;;;;;;;;;;14.41;45.79;100892.44;4949683;27;98100;-67
2023/04/21 04:53:22;;;;;;;;;;;;;;;14.44;45.44;100897.28;4943426;27;123544;-67
2023/04/21 04:55:48;;;;;;;;;;;;;;;14.49;45.52;100892.66;4963684;27;98117;-67
2023/04/21 04:58:14;;;;;;;;;;;;;;;14.58;45.92;100892.88;4946918;27;127487;-67
2023/04/21 05:00:40;;;;;;;;;;;;;;;14.70;45.71;100887.91;4956047;27;100367;-67
2023/04/21 05:03:06;;;;;;;;;;;;;;;14.81;45.44;100885.06;4941429;27;109098;-67
2023/04/21 05:05:32;;;;;;;;;;;;;;;14.89;45.60;100887.97;4943089;27;128875;-68
2023/04/21 05:07:58;;;;;;;;;;;;;;;14.98;45.39;100886.28;4964431;27;117242;-67
2023/04/21 05:10:24;;;;;;;;;;;;;;;15.07;45.40;100891.88;4964829;27;97960;-68
2023/04/21 05:12:50;;;;;;;;;;;;;;;15.15;45.59;100890.44;4964214;27;98274;-67
2023/04/21 05:15:17;;;;;;;;;;;;;;;15.21;45.53;100889.31;4963053;27;98202;-67
2023/04/21 05:17:43;;;;;;;;;;;;;;;15.27;45.49;100890.06;4971591;27;98008;-67
2023/04/21 05:20:09;;;;;;;;;;;;;;;15.34;45.42;100898.69;4948423;27;98040;-67
2023/04/21 05:22:39;;;;;;;;;;;;;;;15.40;45.59;100897.50;4957230;27;98128;-68
2023/04/21 05:25:05;;;;;;;;;;;;;;;15.47;45.46;100903.41;4965094;27;98558;-67
2023/04/21 05:27:32;;;;;;;;;;;;;;;15.54;45.32;100894.91;4977000;27;98333;-67
2023/04/21 05:29:59;;;;;;;;;;;;;;;15.60;45.42;100899.16;4949770;27;99090;-67
2023/04/21 05:32:25;;;;;;;;;;;;;;;15.67;45.26;100894.22;4965848;27;98361;-67
2023/04/21 05:34:51;;;;;;;;;;;;;;;15.75;45.21;100895.50;4960662;27;108583;-67
2023/04/21 05:37:17;;;;;;;;;;;;;;;15.82;45.09;100910.34;4964774;27;105825;-67
2023/04/21 05:39:43;;;;;;;;;;;;;;;15.91;45.20;100910.50;4944279;27;97948;-67
2023/04/21 05:42:10;;;;;;;;;;;;;;;16.02;45.13;100916.63;4957266;27;129003;-67
2023/04/21 05:44:36;;;;;;;;;;;;;;;16.10;45.12;100910.53;4949108;27;98378;-67
2023/04/21 05:47:04;;;;;;;;;;;;;;;16.17;45.24;100903.63;4959511;27;98896;-67
2023/04/21 05:49:30;;;;;;;;;;;;;;;16.28;44.98;100901.56;4959944;27;98560;-67
2023/04/21 05:51:56;;;;;;;;;;;;;;;16.41;44.78;100902.72;4947915;27;100333;-67
2023/04/21 05:54:21;;;;;;;;;;;;;;;16.53;44.78;100899.53;4963264;27;128119;-67
2023/04/21 05:56:48;;;;;;;;;;;;;;;16.65;44.70;100897.97;4946559;27;125747;-67
2023/04/21 05:59:14;;;;;;;;;;;;;;;16.79;44.62;100897.25;4944661;27;98270;-67
2023/04/21 06:01:41;;;;;;;;;;;;;;;16.91;44.60;100894.84;4940770;27;99450;-67
2023/04/21 06:04:07;;;;;;;;;;;;;;;17.05;44.49;100895.69;4961358;27;98996;-67
2023/04/21 06:06:33;;;;;;;;;;;;;;;17.19;44.36;100892.97;4962154;27;126358;-67
2023/04/21 06:08:59;;;;;;;;;;;;;;;17.34;44.46;100884.53;4971625;27;98113;-67
2023/04/21 06:11:25;;;;;;;;;;;;;;;17.49;44.25;100891.59;4960866;27;98233;-67
2023/04/21 06:13:53;;;;;;;;;;;;;;;17.65;44.18;100887.44;4972342;27;98684;-67
2023/04/21 06:16:19;;;;;;;;;;;;;;;17.83;44.26;100887.63;4962504;27;98308;-67
2023/04/21 06:18:45;;;;;;;;;;;;;;;17.99;44.08;100882.66;4973044;27;97963;-67
2023/04/21 06:21:11;;;;;;;;;;;;;;;18.15;43.97;100882.00;4956030;28;98204;-68
2023/04/21 06:23:37;;;;;;;;;;;;;;;18.32;43.85;100884.06;4972261;27;104429;-67
2023/04/21 06:26:04;;;;;;;;;;;;;;;18.50;43.95;100886.94;4974819;27;116199;-68
2023/04/21 06:28:33;;;;;;;;;;;;;;;18.68;43.63;100885.13;4970039;27;98908;-68
2023/04/21 06:31:00;;;;;;;;;;;;;;;18.87;43.70;100883.03;4960616;28;98071;-68
2023/04/21 06:33:26;;;;;;;;;;;;;;;19.07;43.70;100870.75;4939450;27;98004;-68
2023/04/21 06:35:52;;;;;;;;;;;;;;;19.27;43.46;100875.66;4961078;28;97938;-68
2023/04/21 06:38:19;;;;;;;;;;;;;;;19.49;43.31;100877.50;4961511;27;98293;-68
2023/04/21 06:40:44;;;;;;;;;;;;;;;19.72;43.41;100874.69;4973130;27;99544;-68
2023/04/21 06:43:10;;;;;;;;;;;;;;;19.97;43.19;100870.41;4970448;27;98285;-68
2023/04/21 06:45:36;;;;;;;;;;;;;;;20.23;43.13;100875.84;4958225;28;127348;-68
2023/04/21 06:48:02;;;;;;;;;;;;;;;20.51;42.96;100871.66;4955627;28;97922;-68
2023/04/21 06:50:28;;;;;;;;;;;;;;;20.79;42.99;100880.34;4954780;27;112181;-68
2023/04/21 06:52:57;;;;;;;;;;;;;;;21.06;42.82;100876.41;4958299;28;128557;-68
2023/04/21 06:55:23;;;;;;;;;;;;;;;21.33;42.71;100869.69;4967873;27;98322;-68
2023/04/21 06:57:49;;;;;;;;;;;;;;;21.60;42.79;100869.53;4937039;27;118305;-68
2023/04/21 07:00:15;;;;;;;;;;;;;;;21.88;42.62;100875.34;4953016;27;128484;-68
2023/04/21 07:02:41;;;;;;;;;;;;;;;22.14;42.35;100875.97;4968800;27;111547;-68
2023/04/21 07:05:07;;;;;;;;;;;;;;;22.40;42.27;100866.69;4970890;27;98034;-68
2023/04/21 07:07:33;;;;;;;;;;;;;;;22.64;42.39;100858.56;4960043;27;100301;-68
2023/04/21 07:09:59;;;;;;;;;;;;;;;22.89;41.97;100866.84;4936620;28;127832;-68
2023/04/21 07:12:28;;;;;;;;;;;;;;;23.11;41.95;100866.47;4930284;28;127700;-68
2023/04/21 07:14:54;;;;;;;;;;;;;;;23.37;42.03;100873.56;4920060;28;131377;-69
2023/04/21 07:17:20;;;;;;;;;;;;;;;23.62;42.02;100866.91;4940364;28;98428;-69
2023/04/21 07:19:46;;;;;;;;;;;;;;;23.90;42.17;100864.25;4939252;28;98480;-69
2023/04/21 07:22:12;;;;;;;;;;;;;;;24.18;41.69;100872.53;4922454;28;130540;-69
2023/04/21 07:24:38;;;;;;;;;;;;;;;24.45;41.62;100865.47;4919295;28;111796;-69
2023/04/21 07:27:04;;;;;;;;;;;;;;;24.66;41.77;100873.50;4923157;28;97976;-68
2023/04/21 07:29:30;;;;;;;;;;;;;;;24.94;41.54;100867.13;4918791;28;99463;-69
2023/04/21 07:31:57;;;;;;;;;;;;;;;25.23;41.59;100868.69;4939762;28;111384;-69
2023/04/21 07:34:23;;;;;;;;;;;;;;;25.49;41.50;100868.09;4923820;28;98111;-69
2023/04/21 07:36:50;;;;;;;;;;;;;;;25.77;41.11;100865.19;4948685;28;98430;-70
2023/04/21 07:39:16;;;;;;;;;;;;;;;26.09;41.05;100865.09;4936071;28;98513;-70
2023/04/21 07:41:42;;;;;;;;;;;;;;;26.41;41.02;100863.00;4921953;28;105322;-70
2023/04/21 07:44:08;;;;;;;;;;;;;;;26.73;40.84;100871.91;4939708;28;98406;-69
2023/04/21 07:46:34;;;;;;;;;;;;;;;26.96;40.87;100868.34;4931550;28;118636;-69
2023/04/21 07:49:00;;;;;;;;;;;;;;;27.17;40.84;100865.97;4939981;28;100836;-69
2023/04/21 07:51:26;;;;;;;;;;;;;;;27.42;40.84;100858.06;4935958;28;127966;-69
2023/04/21 07:53:53;;;;;;;;;;;;;;;27.69;40.45;100858.06;4919587;28;99400;-70
2023/04/21 07:56:19;;;;;;;;;;;;;;;27.97;40.38;100863.19;4923068;28;97919;-69
2023/04/21 07:58:45;;;;;;;;;;;;;;;28.29;40.13;100864.38;4922667;28;98097;-69
2023/04/21 08:01:11;;;;;;;;;;;;;;;28.66;40.25;100860.06;4940221;28;120227;-70
2023/04/21 08:03:37;;;;;;;;;;;;;;;29.16;40.08;100853.03;4936865;28;98249;-70
2023/04/21 08:06:03;;;;;;;;;;;;;;;29.89;39.70;100861.41;4923207;28;98477;-69
2023/04/21 08:08:29;;;;;;;;;;;;;;;30.60;38.98;100852.53;4943568;27;115076;-71
2023/04/21 08:10:55;;;;;;;;;;;;;;;31.23;38.92;100858.56;4961639;28;127851;-71
2023/04/21 08:13:24;;;;;;;;;;;;;;;31.90;38.47;100848.50;4962224;27;127242;-70
2023/04/21 08:15:51;;;;;;;;;;;;;;;32.58;38.00;100851.78;4964549;27;97971;-71
2023/04/21 08:18:17;;;;;;;;;;;;;;;33.26;38.03;100848.44;4962320;27;122452;-70
2023/04/21 08:20:44;;;;;;;;;;;;;;;33.96;37.81;100839.72;4939449;28;98370;-72
2023/04/21 08:23:10;;;;;;;;;;;;;;;34.73;37.65;100843.84;4962908;28;97997;-71
2023/04/21 08:25:36;;;;;;;;;;;;;;;35.43;37.30;100843.84;4957029;27;98144;-70
2023/04/21 08:28:02;;;;;;;;;;;;;;;36.23;37.02;100841.84;4956826;28;102482;-70
2023/04/21 08:30:28;;;;;;;;;;;;;;;37.04;36.78;100835.53;4959028;27;127081;-72
2023/04/21 08:32:53;;;;;;;;;;;;;;;37.78;36.33;100829.13;4972392;27;99058;-72
2023/04/21 08:35:19;;;;;;;;;;;;;;;38.46;36.05;100827.09;4944866;27;98170;-70
2023/04/21 08:37:46;;;;;;;;;;;;;;;39.17;35.90;100828.75;4960544;28;98385;-72
2023/04/21 08:40:12;;;;;;;;;;;;;;;39.86;35.87;100820.25;4956285;28;100324;-70
2023/04/21 08:42:38;;;;;;;;;;;;;;;40.59;35.42;100828.25;4955898;27;99194;-72
2023/04/21 08:45:05;;;;;;;;;;;;;;;41.18;35.18;100823.31;4977615;27;98046;-72
2023/04/21 08:47:32;;;;;;;;;;;;;;;41.78;35.57;100819.06;4962165;27;98497;-70
2023/04/21 08:49:58;;;;;;;;;;;;;;;42.56;35.09;100810.88;4963161;28;99515;-70
2023/04/21 08:52:24;;;;;;;;;;;;;;;43.32;34.39;100808.63;4962563;27;98332;-70
2023/04/21 08:54:52;;;;;;;;;;;;;;;43.91;34.52;100811.53;4963091;27;98433;-71
2023/04/21 08:57:18;;;;;;;;;;;;;;;44.57;34.23;100799.63;4958319;27;98264;-68
2023/04/21 08:59:45;;;;;;;;;;;;;;;45.26;34.36;100799.94;4944603;28;99410;-71
2023/04/21 09:02:11;;;;;;;;;;;;;;;45.96;33.97;100800.88;4961338;28;97963;-73
2023/04/21 09:04:39;;;;;;;;;;;;;;;46.70;33.32;100800.06;4975426;27;98182;-70
2023/04/21 09:07:07;;;;;;;;;;;;;;;47.26;33.51;100793.75;4960258;28;98321;-69
2023/04/21 09:09:54;;;;;;;;;;;;;;;47.46;33.30;100788.59;4945786;28;98310;-70
2023/04/21 09:12:20;;;;;;;;;;;;;;;47.62;33.38;100778.50;4943510;28;97947;-75
2023/04/21 09:14:46;;;;;;;;;;;;;;;47.79;33.59;100778.50;4925570;28;98188;-69
2023/04/21 09:17:15;;;;;;;;;;;;;;;48.12;33.41;100774.84;4942665;28;99998;-69
2023/04/21 09:19:41;;;;;;;;;;;;;;;48.16;33.61;100771.72;4936520;28;111785;-72
2023/04/21 09:22:07;;;;;;;;;;;;;;;47.56;34.00;100763.47;4923326;28;98022;-71
2023/04/21 09:24:33;;;;;;;;;;;;;;;46.91;35.07;100761.50;4921253;28;98358;-71
2023/04/21 09:27:01;;;;;;;;;;;;;;;46.51;35.30;100763.41;4921188;28;127666;-70
2023/04/21 09:29:27;;;;;;;;;;;;;;;46.40;35.43;100754.03;4920488;28;98057;-69
2023/04/21 09:31:53;;;;;;;;;;;;;;;46.77;35.21;100747.47;4935046;28;126663;-73
2023/04/21 09:34:26;;;;;;;;;;;;;;;47.23;34.41;100753.56;4951856;28;112162;-72
2023/04/21 09:37:02;;;;;;;;;;;;;;;47.85;34.03;100747.88;4926928;28;97919;-73
2023/04/21 09:39:29;;;;;;;;;;;;;;;48.56;33.29;100746.66;4940301;28;97984;-69
2023/04/21 09:41:57;;;;;;;;;;;;;;;49.45;32.75;100742.50;4926412;28;98146;-69
2023/04/21 09:44:24;;;;;;;;;;;;;;;50.03;32.34;100741.44;4921725;28;98198;-70
2023/04/21 09:46:52;;;;;;;;;;;;;;;50.71;31.72;100733.59;4924890;28;98031;-75
2023/04/21 09:49:19;;;;;;;;;;;;;;;51.05;31.52;100733.88;4953266;28;98177;-69
2023/04/21 09:51:45;;;;;;;;;;;;;;;51.26;31.50;100725.50;4941282;28;98038;-69
2023/04/21 09:54:20;;;;;;;;;;;;;;;51.64;31.85;100727.44;4958306;28;98296;-73
2023/04/21 09:56:52;;;;;;;;;;;;;;;51.83;31.48;100719.50;4923261;28;99688;-70
2023/04/21 09:59:20;;;;;;;;;;;;;;;52.38;31.54;100721.84;4939998;28;118677;-69
2023/04/21 10:01:48;;;;;;;;;;;;;;;52.59;31.55;100716.19;4925167;28;97960;-68
2023/04/21 10:04:15;;;;;;;;;;;;;;;52.51;31.25;100710.31;4955055;28;99118;-69
2023/04/21 10:06:41;;;;;;;;;;;;;;;52.66;31.20;100701.88;4942991;28;97929;-70
2023/04/21 10:09:08;;;;;;;;;;;;;;;52.51;31.46;100698.81;4945441;27;98566;-72
2023/04/21 10:11:35;;;;;;;;;;;;;;;52.66;31.37;100692.50;4944240;27;98300;-71
2023/04/21 10:14:01;;;;;;;;;;;;;;;52.78;31.50;100688.00;4958297;27;98418;-72
2023/04/21 10:16:27;;;;;;;;;;;;;;;53.03;31.26;100688.50;4958167;27;98675;-72
2023/04/21 10:18:53;;;;;;;;;;;;;;;53.32;31.49;100679.94;4955166;27;97908;-70
2023/04/21 10:21:20;;;;;;;;;;;;;;;53.68;31.19;100682.88;4959213;27;101840;-70
2023/04/21 10:23:53;;;;;;;;;;;;;;;53.85;31.12;100676.66;4961148;28;98396;-72
2023/04/21 10:26:23;;;;;;;;;;;;;;;54.02;31.18;100681.94;4973412;27;98621;-70
2023/04/21 10:28:55;;;;;;;;;;;;;;;54.29;30.95;100668.84;4941923;28;112277;-70
2023/04/21 10:31:28;;;;;;;;;;;;;;;54.35;30.52;100678.06;4954725;27;98713;-70
2023/04/21 10:34:15;;;;;;;;;;;;;;;54.30;30.85;100658.84;4971663;27;98609;-71
2023/04/21 10:36:56;;;;;;;;;;;;;;;54.24;30.71;100654.59;4955986;27;98041;-70
2023/04/21 10:39:34;;;;;;;;;;;;;;;54.25;30.71;100647.50;4969000;27;99535;-72
2023/04/21 10:42:15;;;;;;;;;;;;;;;54.09;31.00;100650.28;4973024;27;97811;-70
2023/04/21 10:44:56;;;;;;;;;;;;;;;54.16;30.54;100640.91;4971075;27;98154;-69
2023/04/21 10:47:43;;;;;;;;;;;;;;;54.24;30.49;100638.09;4969082;27;98021;-74
2023/04/21 10:50:22;;;;;;;;;;;;;;;54.13;30.50;100636.28;4936686;28;98625;-72
2023/04/21 10:52:54;;;;;;;;;;;;;;;52.41;32.35;100623.78;4935379;28;98156;-74
2023/04/21 10:55:21;;;;;;;;;;;;;;;53.15;31.12;100632.19;4947606;27;98100;-74
2023/04/21 10:57:47;;;;;;;;;;;;;;;53.16;31.24;100627.97;4935336;28;106061;-73
2023/04/21 11:00:21;;;;;;;;;;;;;;;53.35;30.95;100642.16;4953728;28;103869;-71
2023/04/21 11:02:55;;;;;;;;;;;;;;;53.18;30.60;100616.69;4953783;28;98899;-70
2023/04/21 11:05:27;;;;;;;;;;;;;;;52.74;31.14;100622.22;4957710;27;98131;-70
2023/04/21 11:08:04;;;;;;;;;;;;;;;52.33;31.58;100605.69;4958145;27;98148;-69
2023/04/21 11:10:41;;;;;;;;;;;;;;;51.62;31.50;100604.56;4973158;27;98668;-70
2023/04/21 11:13:07;;;;;;;;;;;;;;;49.25;33.83;100599.88;4959083;27;102859;-70
2023/04/21 11:15:33;;;;;;;;;;;;;;;48.11;34.28;100595.47;4960434;27;98031;-71
2023/04/21 11:18:00;;;;;;;;;;;;;;;48.80;33.28;100595.31;4958641;27;128712;-69
2023/04/21 11:20:26;;;;;;;;;;;;;;;48.47;33.35;100604.13;4985202;27;99420;-69
2023/04/21 11:22:52;;;;;;;;;;;;;;;47.88;33.72;100581.28;4960248;27;98908;-71
2023/04/21 11:25:18;;;;;;;;;;;;;;;47.57;33.65;100593.81;4967172;27;98365;-70
2023/04/21 11:27:53;;;;;;;;;;;;;;;47.37;33.94;100600.59;4950698;27;99521;-69
2023/04/21 11:30:20;;;;;;;;;;;;;;;46.93;34.14;100590.75;4958319;27;99892;-70
2023/04/21 11:32:47;;;;;;;;;;;;;;;46.41;34.52;100584.69;4958898;27;98060;-72
2023/04/21 11:35:13;;;;;;;;;;;;;;;45.01;35.36;100582.59;4955940;27;97991;-72
2023/04/21 11:37:38;;;;;;;;;;;;;;;44.90;34.98;100576.06;4965138;27;125384;-72
2023/04/21 11:40:06;;;;;;;;;;;;;;;43.65;35.97;100592.13;4959066;27;99131;-72
2023/04/21 11:42:32;;;;;;;;;;;;;;;42.73;36.59;100590.34;4955998;27;98097;-72
2023/04/21 11:44:59;;;;;;;;;;;;;;;43.40;35.29;100593.53;4942744;27;101776;-72
2023/04/21 11:47:26;;;;;;;;;;;;;;;42.45;36.01;100586.94;4938306;27;99026;-69
2023/04/21 11:49:56;;;;;;;;;;;;;;;42.96;34.90;100586.63;4951816;27;98055;-70
2023/04/21 11:52:31;;;;;;;;;;;;;;;42.69;35.01;100584.09;4953991;27;98117;-71
2023/04/21 11:55:01;;;;;;;;;;;;;;;42.19;35.52;100584.63;4942378;27;98457;-71
2023/04/21 11:57:28;;;;;;;;;;;;;;;41.95;35.46;100583.88;4966734;27;98831;-69
2023/04/21 11:59:56;;;;;;;;;;;;;;;42.19;34.93;100584.63;4953818;27;98068;-74
2023/04/21 12:02:27;;;;;;;;;;;;;;;42.31;34.96;100582.84;4953433;27;108361;-70
2023/04/21 12:05:04;;;;;;;;;;;;;;;42.47;34.50;100578.75;4938421;27;98087;-70
2023/04/21 12:07:31;;;;;;;;;;;;;;;42.36;34.78;100582.16;4973642;27;98272;-70
2023/04/21 12:09:58;;;;;;;;;;;;;;;42.20;34.37;100574.09;4957739;27;99039;-73
2023/04/21 12:12:25;;;;;;;;;;;;;;;41.58;35.37;100562.25;4941416;27;98084;-72
2023/04/21 12:14:51;;;;;;;;;;;;;;;42.11;34.54;100572.91;4988060;27;98204;-74
2023/04/21 12:17:17;;;;;;;;;;;;;;;42.19;34.46;100573.31;4950349;27;98782;-69
2023/04/21 12:19:43;;;;;;;;;;;;;;;41.14;35.19;100571.19;4934286;27;98476;-70
2023/04/21 12:22:13;;;;;;;;;;;;;;;41.53;34.51;100574.19;4952660;27;99774;-70
2023/04/21 12:24:39;;;;;;;;;;;;;;;41.52;34.66;100564.16;4956492;27;98054;-74
2023/04/21 12:27:05;;;;;;;;;;;;;;;41.48;34.79;100572.03;4936658;27;98245;-70
2023/04/21 12:29:34;;;;;;;;;;;;;;;41.40;34.41;100551.81;4952681;27;98880;-70
2023/04/21 12:32:00;;;;;;;;;;;;;;;41.29;34.70;100545.88;4956561;27;98774;-70